sensor_id;sensor_type;location;lat;lon;timestamp;P1;durP1;ratioP1;P2;durP2;ratioP2
56269;SDS011;42176;43.240;27.880;2023-04-03T00:01:33;6.72;;;2.78;;
56269;SDS011;42176;43.240;27.880;2023-04-03T00:04:00;6.25;;;3.40;;
56269;SDS011;42176;43.240;27.880;2023-04-03T00:06:25;4.13;;;2.90;;
56269;SDS011;42176;43.240;27.880;2023-04-03T00:08:51;5.50;;;2.83;;
56269;SDS011;42176;43.240;27.880;2023-04-03T00:11:20;6.07;;;3.95;;
56269;SDS011;42176;43.240;27.880;2023-04-03T00:13:45;7.90;;;3.50;;
56269;SDS011;42176;43.240;27.880;2023-04-03T00:16:11;5.63;;;4.05;;
56269;SDS011;42176;43.240;27.880;2023-04-03T00:18:37;5.72;;;3.60;;
56269;SDS011;42176;43.240;27.880;2023-04-03T00:21:05;6.13;;;4.57;;
56269;SDS011;42176;43.240;27.880;2023-04-03T00:23:31;8.35;;;4.65;;
56269;SDS011;42176;43.240;27.880;2023-04-03T00:25:57;8.18;;;4.03;;
56269;SDS011;42176;43.240;27.880;2023-04-03T00:28:22;5.68;;;3.90;;
56269;SDS011;42176;43.240;27.880;2023-04-03T00:30:49;6.07;;;3.78;;
56269;SDS011;42176;43.240;27.880;2023-04-03T00:33:15;7.38;;;4.28;;
56269;SDS011;42176;43.240;27.880;2023-04-03T00:35:40;6.85;;;4.00;;
56269;SDS011;42176;43.240;27.880;2023-04-03T00:38:06;5.15;;;3.50;;
56269;SDS011;42176;43.240;27.880;2023-04-03T00:40:36;7.85;;;4.03;;
56269;SDS011;42176;43.240;27.880;2023-04-03T00:43:08;7.15;;;3.25;;
56269;SDS011;42176;43.240;27.880;2023-04-03T00:45:37;3.45;;;3.13;;
56269;SDS011;42176;43.240;27.880;2023-04-03T00:48:07;4.80;;;3.03;;
56269;SDS011;42176;43.240;27.880;2023-04-03T00:50:35;6.70;;;3.40;;
56269;SDS011;42176;43.240;27.880;2023-04-03T00:53:03;4.97;;;4.28;;
56269;SDS011;42176;43.240;27.880;2023-04-03T00:55:31;6.47;;;3.42;;
56269;SDS011;42176;43.240;27.880;2023-04-03T00:57:57;3.55;;;2.97;;
56269;SDS011;42176;43.240;27.880;2023-04-03T01:00:25;2.45;;;2.08;;
56269;SDS011;42176;43.240;27.880;2023-04-03T01:02:51;7.28;;;2.60;;
56269;SDS011;42176;43.240;27.880;2023-04-03T01:05:17;4.13;;;2.33;;
56269;SDS011;42176;43.240;27.880;2023-04-03T01:07:45;2.00;;;1.60;;
56269;SDS011;42176;43.240;27.880;2023-04-03T01:10:13;2.75;;;1.88;;
56269;SDS011;42176;43.240;27.880;2023-04-03T01:12:42;3.05;;;2.00;;
56269;SDS011;42176;43.240;27.880;2023-04-03T01:15:11;2.83;;;1.80;;
56269;SDS011;42176;43.240;27.880;2023-04-03T01:17:46;5.50;;;1.58;;
56269;SDS011;42176;43.240;27.880;2023-04-03T01:22:44;1.70;;;1.60;;
56269;SDS011;42176;43.240;27.880;2023-04-03T01:25:23;3.17;;;2.10;;
56269;SDS011;42176;43.240;27.880;2023-04-03T01:27:49;14.25;;;6.75;;
56269;SDS011;42176;43.240;27.880;2023-04-03T01:30:16;14.13;;;5.40;;
56269;SDS011;42176;43.240;27.880;2023-04-03T01:32:43;3.47;;;2.30;;
56269;SDS011;42176;43.240;27.880;2023-04-03T01:35:09;3.75;;;2.38;;
56269;SDS011;42176;43.240;27.880;2023-04-03T01:37:35;1.60;;;1.50;;
56269;SDS011;42176;43.240;27.880;2023-04-03T01:40:00;2.30;;;1.85;;
56269;SDS011;42176;43.240;27.880;2023-04-03T01:42:26;3.85;;;2.13;;
56269;SDS011;42176;43.240;27.880;2023-04-03T01:44:51;6.53;;;2.85;;
56269;SDS011;42176;43.240;27.880;2023-04-03T01:47:17;4.43;;;2.88;;
56269;SDS011;42176;43.240;27.880;2023-04-03T01:49:42;5.03;;;2.72;;
56269;SDS011;42176;43.240;27.880;2023-04-03T01:52:08;5.65;;;2.20;;
56269;SDS011;42176;43.240;27.880;2023-04-03T01:54:33;3.35;;;1.98;;
56269;SDS011;42176;43.240;27.880;2023-04-03T01:56:58;4.88;;;2.05;;
56269;SDS011;42176;43.240;27.880;2023-04-03T01:59:24;2.13;;;1.73;;
56269;SDS011;42176;43.240;27.880;2023-04-03T02:01:49;4.40;;;2.60;;
56269;SDS011;42176;43.240;27.880;2023-04-03T02:04:15;7.30;;;2.95;;
56269;SDS011;42176;43.240;27.880;2023-04-03T02:06:41;10.43;;;4.90;;
56269;SDS011;42176;43.240;27.880;2023-04-03T02:09:06;10.93;;;5.80;;
56269;SDS011;42176;43.240;27.880;2023-04-03T02:11:34;8.32;;;3.95;;
56269;SDS011;42176;43.240;27.880;2023-04-03T02:14:02;6.22;;;3.50;;
56269;SDS011;42176;43.240;27.880;2023-04-03T02:16:27;8.82;;;5.50;;
56269;SDS011;42176;43.240;27.880;2023-04-03T02:18:53;5.28;;;3.15;;
56269;SDS011;42176;43.240;27.880;2023-04-03T02:21:19;4.43;;;1.80;;
56269;SDS011;42176;43.240;27.880;2023-04-03T02:23:44;4.45;;;2.97;;
56269;SDS011;42176;43.240;27.880;2023-04-03T02:26:11;4.90;;;3.42;;
56269;SDS011;42176;43.240;27.880;2023-04-03T02:28:39;6.55;;;3.92;;
56269;SDS011;42176;43.240;27.880;2023-04-03T02:31:06;6.05;;;3.72;;
56269;SDS011;42176;43.240;27.880;2023-04-03T02:33:32;8.48;;;3.58;;
56269;SDS011;42176;43.240;27.880;2023-04-03T02:35:58;13.23;;;6.70;;
56269;SDS011;42176;43.240;27.880;2023-04-03T02:38:24;14.52;;;7.85;;
56269;SDS011;42176;43.240;27.880;2023-04-03T02:40:50;13.48;;;7.00;;
56269;SDS011;42176;43.240;27.880;2023-04-03T02:43:16;18.10;;;8.32;;
56269;SDS011;42176;43.240;27.880;2023-04-03T02:45:42;20.95;;;8.23;;
56269;SDS011;42176;43.240;27.880;2023-04-03T02:48:07;15.52;;;8.75;;
56269;SDS011;42176;43.240;27.880;2023-04-03T02:50:33;11.75;;;6.72;;
56269;SDS011;42176;43.240;27.880;2023-04-03T02:52:58;12.63;;;5.70;;
56269;SDS011;42176;43.240;27.880;2023-04-03T02:55:24;8.85;;;4.45;;
56269;SDS011;42176;43.240;27.880;2023-04-03T02:57:50;10.05;;;5.70;;
56269;SDS011;42176;43.240;27.880;2023-04-03T03:00:15;4.70;;;2.92;;
56269;SDS011;42176;43.240;27.880;2023-04-03T03:02:44;4.28;;;2.15;;
56269;SDS011;42176;43.240;27.880;2023-04-03T03:05:09;6.60;;;2.33;;
56269;SDS011;42176;43.240;27.880;2023-04-03T03:07:35;2.90;;;1.88;;
56269;SDS011;42176;43.240;27.880;2023-04-03T03:10:00;1.42;;;1.30;;
56269;SDS011;42176;43.240;27.880;2023-04-03T03:12:27;4.07;;;1.85;;
56269;SDS011;42176;43.240;27.880;2023-04-03T03:14:52;3.92;;;1.80;;
56269;SDS011;42176;43.240;27.880;2023-04-03T03:17:18;1.70;;;1.60;;
56269;SDS011;42176;43.240;27.880;2023-04-03T03:19:43;2.78;;;1.77;;
56269;SDS011;42176;43.240;27.880;2023-04-03T03:22:10;7.43;;;3.80;;
56269;SDS011;42176;43.240;27.880;2023-04-03T03:24:36;8.55;;;2.10;;
56269;SDS011;42176;43.240;27.880;2023-04-03T03:27:01;3.00;;;2.00;;
56269;SDS011;42176;43.240;27.880;2023-04-03T03:29:27;2.78;;;2.08;;
56269;SDS011;42176;43.240;27.880;2023-04-03T03:31:52;2.53;;;1.42;;
56269;SDS011;42176;43.240;27.880;2023-04-03T03:34:18;1.88;;;1.15;;
56269;SDS011;42176;43.240;27.880;2023-04-03T03:36:43;3.00;;;1.58;;
56269;SDS011;42176;43.240;27.880;2023-04-03T03:39:09;1.73;;;1.33;;
56269;SDS011;42176;43.240;27.880;2023-04-03T03:41:35;1.98;;;1.52;;
56269;SDS011;42176;43.240;27.880;2023-04-03T03:44:00;3.88;;;2.30;;
56269;SDS011;42176;43.240;27.880;2023-04-03T03:46:26;2.22;;;1.92;;
56269;SDS011;42176;43.240;27.880;2023-04-03T03:48:51;4.35;;;2.35;;
56269;SDS011;42176;43.240;27.880;2023-04-03T03:51:17;4.15;;;2.97;;
56269;SDS011;42176;43.240;27.880;2023-04-03T03:53:42;8.15;;;3.10;;
56269;SDS011;42176;43.240;27.880;2023-04-03T03:56:08;4.63;;;3.03;;
56269;SDS011;42176;43.240;27.880;2023-04-03T03:58:33;11.63;;;3.55;;
56269;SDS011;42176;43.240;27.880;2023-04-03T04:01:02;5.47;;;3.40;;
56269;SDS011;42176;43.240;27.880;2023-04-03T04:03:28;5.55;;;3.15;;
56269;SDS011;42176;43.240;27.880;2023-04-03T04:05:54;9.07;;;4.00;;
56269;SDS011;42176;43.240;27.880;2023-04-03T04:08:20;9.02;;;4.22;;
56269;SDS011;42176;43.240;27.880;2023-04-03T04:10:45;9.05;;;5.88;;
56269;SDS011;42176;43.240;27.880;2023-04-03T04:13:11;8.65;;;5.13;;
56269;SDS011;42176;43.240;27.880;2023-04-03T04:15:36;12.68;;;5.22;;
56269;SDS011;42176;43.240;27.880;2023-04-03T04:18:01;6.78;;;4.68;;
56269;SDS011;42176;43.240;27.880;2023-04-03T04:20:27;12.50;;;7.03;;
56269;SDS011;42176;43.240;27.880;2023-04-03T04:22:55;14.70;;;7.80;;
56269;SDS011;42176;43.240;27.880;2023-04-03T04:25:21;8.10;;;6.07;;
56269;SDS011;42176;43.240;27.880;2023-04-03T04:27:46;5.05;;;4.00;;
56269;SDS011;42176;43.240;27.880;2023-04-03T04:30:14;10.23;;;5.95;;
56269;SDS011;42176;43.240;27.880;2023-04-03T04:32:40;12.45;;;7.10;;
56269;SDS011;42176;43.240;27.880;2023-04-03T04:35:05;8.25;;;4.50;;
56269;SDS011;42176;43.240;27.880;2023-04-03T04:37:31;17.23;;;4.88;;
56269;SDS011;42176;43.240;27.880;2023-04-03T04:39:57;36.42;;;13.55;;
56269;SDS011;42176;43.240;27.880;2023-04-03T04:42:22;29.58;;;11.68;;
56269;SDS011;42176;43.240;27.880;2023-04-03T04:44:50;14.07;;;6.82;;
56269;SDS011;42176;43.240;27.880;2023-04-03T04:47:16;14.93;;;7.45;;
56269;SDS011;42176;43.240;27.880;2023-04-03T04:49:41;8.75;;;4.53;;
56269;SDS011;42176;43.240;27.880;2023-04-03T04:52:07;9.20;;;4.65;;
56269;SDS011;42176;43.240;27.880;2023-04-03T04:54:35;12.70;;;5.40;;
56269;SDS011;42176;43.240;27.880;2023-04-03T04:57:00;7.35;;;4.28;;
56269;SDS011;42176;43.240;27.880;2023-04-03T04:59:28;11.38;;;4.53;;
56269;SDS011;42176;43.240;27.880;2023-04-03T05:01:53;5.43;;;2.90;;
56269;SDS011;42176;43.240;27.880;2023-04-03T05:04:19;6.40;;;3.45;;
56269;SDS011;42176;43.240;27.880;2023-04-03T05:06:45;9.13;;;4.40;;
56269;SDS011;42176;43.240;27.880;2023-04-03T05:09:10;7.80;;;2.45;;
56269;SDS011;42176;43.240;27.880;2023-04-03T05:11:36;11.43;;;2.47;;
56269;SDS011;42176;43.240;27.880;2023-04-03T05:14:01;2.03;;;1.90;;
56269;SDS011;42176;43.240;27.880;2023-04-03T05:16:27;4.07;;;2.42;;
56269;SDS011;42176;43.240;27.880;2023-04-03T05:18:52;3.75;;;2.38;;
56269;SDS011;42176;43.240;27.880;2023-04-03T05:21:18;4.72;;;2.40;;
56269;SDS011;42176;43.240;27.880;2023-04-03T05:23:43;6.43;;;3.05;;
56269;SDS011;42176;43.240;27.880;2023-04-03T05:26:09;3.60;;;1.77;;
56269;SDS011;42176;43.240;27.880;2023-04-03T05:28:35;3.78;;;2.13;;
56269;SDS011;42176;43.240;27.880;2023-04-03T05:31:00;11.93;;;5.60;;
56269;SDS011;42176;43.240;27.880;2023-04-03T05:33:26;6.72;;;3.78;;
56269;SDS011;42176;43.240;27.880;2023-04-03T05:35:52;8.63;;;5.60;;
56269;SDS011;42176;43.240;27.880;2023-04-03T05:38:19;2.15;;;1.48;;
56269;SDS011;42176;43.240;27.880;2023-04-03T05:40:45;10.23;;;5.45;;
56269;SDS011;42176;43.240;27.880;2023-04-03T05:43:10;1.80;;;1.30;;
56269;SDS011;42176;43.240;27.880;2023-04-03T05:45:36;2.30;;;1.38;;
56269;SDS011;42176;43.240;27.880;2023-04-03T05:48:01;3.03;;;2.72;;
56269;SDS011;42176;43.240;27.880;2023-04-03T05:50:26;2.88;;;1.88;;
56269;SDS011;42176;43.240;27.880;2023-04-03T05:52:52;2.70;;;2.30;;
56269;SDS011;42176;43.240;27.880;2023-04-03T05:55:21;3.75;;;2.22;;
56269;SDS011;42176;43.240;27.880;2023-04-03T05:57:47;2.20;;;1.67;;
56269;SDS011;42176;43.240;27.880;2023-04-03T06:00:13;2.20;;;0.98;;
56269;SDS011;42176;43.240;27.880;2023-04-03T06:02:41;2.55;;;1.08;;
56269;SDS011;42176;43.240;27.880;2023-04-03T06:05:06;1.52;;;1.42;;
56269;SDS011;42176;43.240;27.880;2023-04-03T06:07:33;3.25;;;1.50;;
56269;SDS011;42176;43.240;27.880;2023-04-03T06:09:59;3.75;;;1.83;;
56269;SDS011;42176;43.240;27.880;2023-04-03T06:12:25;1.52;;;1.38;;
56269;SDS011;42176;43.240;27.880;2023-04-03T06:14:50;1.70;;;1.30;;
56269;SDS011;42176;43.240;27.880;2023-04-03T06:17:16;2.10;;;1.50;;
56269;SDS011;42176;43.240;27.880;2023-04-03T06:19:43;2.58;;;1.67;;
56269;SDS011;42176;43.240;27.880;2023-04-03T06:22:09;3.47;;;1.67;;
56269;SDS011;42176;43.240;27.880;2023-04-03T06:24:37;3.03;;;1.15;;
56269;SDS011;42176;43.240;27.880;2023-04-03T06:27:06;1.58;;;1.48;;
56269;SDS011;42176;43.240;27.880;2023-04-03T06:29:32;1.63;;;1.38;;
56269;SDS011;42176;43.240;27.880;2023-04-03T06:31:58;2.88;;;1.85;;
56269;SDS011;42176;43.240;27.880;2023-04-03T06:34:23;3.22;;;1.35;;
56269;SDS011;42176;43.240;27.880;2023-04-03T06:36:51;1.52;;;1.23;;
56269;SDS011;42176;43.240;27.880;2023-04-03T06:39:17;1.50;;;1.40;;
56269;SDS011;42176;43.240;27.880;2023-04-03T06:41:51;1.77;;;1.55;;
56269;SDS011;42176;43.240;27.880;2023-04-03T06:44:16;2.47;;;1.70;;
56269;SDS011;42176;43.240;27.880;2023-04-03T06:46:43;1.45;;;1.30;;
56269;SDS011;42176;43.240;27.880;2023-04-03T06:49:09;1.70;;;1.52;;
56269;SDS011;42176;43.240;27.880;2023-04-03T06:51:36;1.90;;;1.80;;
56269;SDS011;42176;43.240;27.880;2023-04-03T06:54:01;1.42;;;1.33;;
56269;SDS011;42176;43.240;27.880;2023-04-03T06:56:28;2.17;;;1.73;;
56269;SDS011;42176;43.240;27.880;2023-04-03T06:58:54;1.95;;;1.48;;
56269;SDS011;42176;43.240;27.880;2023-04-03T07:01:23;3.25;;;1.60;;
56269;SDS011;42176;43.240;27.880;2023-04-03T07:03:50;2.60;;;1.60;;
56269;SDS011;42176;43.240;27.880;2023-04-03T07:06:16;3.75;;;1.35;;
56269;SDS011;42176;43.240;27.880;2023-04-03T07:08:43;4.35;;;1.30;;
56269;SDS011;42176;43.240;27.880;2023-04-03T07:11:09;4.65;;;1.70;;
56269;SDS011;42176;43.240;27.880;2023-04-03T07:13:35;1.63;;;1.52;;
56269;SDS011;42176;43.240;27.880;2023-04-03T07:16:01;1.80;;;1.38;;
56269;SDS011;42176;43.240;27.880;2023-04-03T07:18:28;3.60;;;2.25;;
56269;SDS011;42176;43.240;27.880;2023-04-03T07:20:57;1.70;;;1.30;;
56269;SDS011;42176;43.240;27.880;2023-04-03T07:23:23;1.60;;;1.30;;
56269;SDS011;42176;43.240;27.880;2023-04-03T07:25:49;1.92;;;1.27;;
56269;SDS011;42176;43.240;27.880;2023-04-03T07:28:17;1.58;;;1.30;;
56269;SDS011;42176;43.240;27.880;2023-04-03T07:30:47;1.90;;;1.75;;
56269;SDS011;42176;43.240;27.880;2023-04-03T07:33:18;2.20;;;1.40;;
56269;SDS011;42176;43.240;27.880;2023-04-03T07:35:46;1.88;;;1.35;;
56269;SDS011;42176;43.240;27.880;2023-04-03T07:38:12;2.20;;;1.50;;
56269;SDS011;42176;43.240;27.880;2023-04-03T07:40:38;1.27;;;1.17;;
56269;SDS011;42176;43.240;27.880;2023-04-03T07:43:05;3.60;;;1.30;;
56269;SDS011;42176;43.240;27.880;2023-04-03T07:45:31;11.32;;;1.80;;
56269;SDS011;42176;43.240;27.880;2023-04-03T07:47:59;1.13;;;1.02;;
56269;SDS011;42176;43.240;27.880;2023-04-03T07:50:25;3.45;;;2.33;;
56269;SDS011;42176;43.240;27.880;2023-04-03T07:52:51;1.35;;;1.23;;
56269;SDS011;42176;43.240;27.880;2023-04-03T07:55:19;2.60;;;1.30;;
56269;SDS011;42176;43.240;27.880;2023-04-03T07:57:45;1.60;;;1.50;;
56269;SDS011;42176;43.240;27.880;2023-04-03T08:00:10;3.25;;;1.95;;
56269;SDS011;42176;43.240;27.880;2023-04-03T08:02:37;1.92;;;1.30;;
56269;SDS011;42176;43.240;27.880;2023-04-03T08:05:02;2.15;;;1.60;;
56269;SDS011;42176;43.240;27.880;2023-04-03T08:07:28;1.83;;;1.40;;
56269;SDS011;42176;43.240;27.880;2023-04-03T08:09:54;2.75;;;1.50;;
56269;SDS011;42176;43.240;27.880;2023-04-03T08:12:20;1.88;;;1.40;;
56269;SDS011;42176;43.240;27.880;2023-04-03T08:14:45;1.52;;;1.33;;
56269;SDS011;42176;43.240;27.880;2023-04-03T08:17:11;1.65;;;1.52;;
56269;SDS011;42176;43.240;27.880;2023-04-03T08:19:39;2.85;;;2.00;;
56269;SDS011;42176;43.240;27.880;2023-04-03T08:22:05;2.05;;;1.80;;
56269;SDS011;42176;43.240;27.880;2023-04-03T08:24:31;3.85;;;2.33;;
56269;SDS011;42176;43.240;27.880;2023-04-03T08:26:57;4.63;;;2.88;;
56269;SDS011;42176;43.240;27.880;2023-04-03T08:29:23;2.50;;;2.30;;
56269;SDS011;42176;43.240;27.880;2023-04-03T08:31:49;5.00;;;2.47;;
56269;SDS011;42176;43.240;27.880;2023-04-03T08:34:15;3.97;;;3.13;;
56269;SDS011;42176;43.240;27.880;2023-04-03T08:36:41;4.43;;;2.63;;
56269;SDS011;42176;43.240;27.880;2023-04-03T08:39:07;6.82;;;2.80;;
56269;SDS011;42176;43.240;27.880;2023-04-03T08:41:37;3.65;;;2.28;;
56269;SDS011;42176;43.240;27.880;2023-04-03T08:49:25;3.38;;;2.60;;
56269;SDS011;42176;43.240;27.880;2023-04-03T08:51:56;3.80;;;2.85;;
56269;SDS011;42176;43.240;27.880;2023-04-03T08:56:56;3.75;;;3.10;;
56269;SDS011;42176;43.240;27.880;2023-04-03T08:59:29;6.70;;;3.22;;
56269;SDS011;42176;43.240;27.880;2023-04-03T09:02:02;4.68;;;3.30;;
56269;SDS011;42176;43.240;27.880;2023-04-03T09:04:43;4.55;;;2.83;;
56269;SDS011;42176;43.240;27.880;2023-04-03T09:07:09;5.30;;;2.78;;
56269;SDS011;42176;43.240;27.880;2023-04-03T09:09:42;6.05;;;2.85;;
56269;SDS011;42176;43.240;27.880;2023-04-03T09:12:15;5.32;;;3.20;;
56269;SDS011;42176;43.240;27.880;2023-04-03T09:23:33;4.35;;;3.00;;
56269;SDS011;42176;43.240;27.880;2023-04-03T09:26:17;5.47;;;3.35;;
56269;SDS011;42176;43.240;27.880;2023-04-03T09:28:51;11.38;;;3.00;;
56269;SDS011;42176;43.240;27.880;2023-04-03T09:33:45;7.47;;;3.78;;
56269;SDS011;42176;43.240;27.880;2023-04-03T09:36:11;7.85;;;4.28;;
56269;SDS011;42176;43.240;27.880;2023-04-03T09:38:37;7.60;;;3.42;;
56269;SDS011;42176;43.240;27.880;2023-04-03T09:43:33;5.90;;;3.70;;
56269;SDS011;42176;43.240;27.880;2023-04-03T09:49:01;5.18;;;3.95;;
56269;SDS011;42176;43.240;27.880;2023-04-03T09:51:28;14.20;;;4.85;;
56269;SDS011;42176;43.240;27.880;2023-04-03T09:53:54;5.05;;;4.05;;
56269;SDS011;42176;43.240;27.880;2023-04-03T09:56:22;7.22;;;3.67;;
56269;SDS011;42176;43.240;27.880;2023-04-03T10:04:15;5.85;;;3.50;;
56269;SDS011;42176;43.240;27.880;2023-04-03T10:06:46;9.70;;;3.95;;
56269;SDS011;42176;43.240;27.880;2023-04-03T10:09:18;8.55;;;4.25;;
56269;SDS011;42176;43.240;27.880;2023-04-03T10:12:06;8.95;;;4.07;;
56269;SDS011;42176;43.240;27.880;2023-04-03T10:14:36;5.68;;;4.35;;
56269;SDS011;42176;43.240;27.880;2023-04-03T10:25:00;7.25;;;3.58;;
56269;SDS011;42176;43.240;27.880;2023-04-03T10:27:31;5.53;;;3.80;;
56269;SDS011;42176;43.240;27.880;2023-04-03T10:40:39;3.15;;;2.83;;
56269;SDS011;42176;43.240;27.880;2023-04-03T10:46:04;3.85;;;2.60;;
56269;SDS011;42176;43.240;27.880;2023-04-03T10:51:41;6.22;;;3.65;;
56269;SDS011;42176;43.240;27.880;2023-04-03T10:54:26;7.60;;;3.13;;
56269;SDS011;42176;43.240;27.880;2023-04-03T10:57:04;5.65;;;3.42;;
56269;SDS011;42176;43.240;27.880;2023-04-03T11:02:07;4.25;;;2.92;;
56269;SDS011;42176;43.240;27.880;2023-04-03T11:04:51;4.97;;;3.72;;
56269;SDS011;42176;43.240;27.880;2023-04-03T11:07:21;3.78;;;3.25;;
56269;SDS011;42176;43.240;27.880;2023-04-03T11:09:50;3.13;;;2.80;;
56269;SDS011;42176;43.240;27.880;2023-04-03T11:12:25;3.08;;;2.70;;
56269;SDS011;42176;43.240;27.880;2023-04-03T11:14:58;2.63;;;2.30;;
56269;SDS011;42176;43.240;27.880;2023-04-03T11:17:28;5.32;;;2.53;;
56269;SDS011;42176;43.240;27.880;2023-04-03T11:20:19;4.50;;;2.97;;
56269;SDS011;42176;43.240;27.880;2023-04-03T11:23:06;6.80;;;2.30;;
56269;SDS011;42176;43.240;27.880;2023-04-03T11:25:46;2.67;;;2.20;;
56269;SDS011;42176;43.240;27.880;2023-04-03T11:28:14;3.85;;;2.60;;
56269;SDS011;42176;43.240;27.880;2023-04-03T11:33:15;8.38;;;2.50;;
56269;SDS011;42176;43.240;27.880;2023-04-03T11:35:47;8.88;;;2.63;;
56269;SDS011;42176;43.240;27.880;2023-04-03T11:38:26;4.10;;;2.10;;
56269;SDS011;42176;43.240;27.880;2023-04-03T11:40:56;8.07;;;2.65;;
56269;SDS011;42176;43.240;27.880;2023-04-03T11:46:00;5.65;;;2.70;;
56269;SDS011;42176;43.240;27.880;2023-04-03T11:51:00;5.45;;;2.30;;
56269;SDS011;42176;43.240;27.880;2023-04-03T11:53:33;3.17;;;1.98;;
56269;SDS011;42176;43.240;27.880;2023-04-03T12:01:45;3.58;;;2.15;;
56269;SDS011;42176;43.240;27.880;2023-04-03T12:04:11;2.80;;;2.15;;
56269;SDS011;42176;43.240;27.880;2023-04-03T12:10:14;2.72;;;1.88;;
56269;SDS011;42176;43.240;27.880;2023-04-03T12:12:25;3.63;;;1.92;;
56269;SDS011;42176;43.240;27.880;2023-04-03T12:14:52;4.35;;;2.45;;
56269;SDS011;42176;43.240;27.880;2023-04-03T12:17:20;3.65;;;2.05;;
56269;SDS011;42176;43.240;27.880;2023-04-03T12:19:52;2.25;;;2.05;;
56269;SDS011;42176;43.240;27.880;2023-04-03T12:22:18;2.40;;;2.15;;
56269;SDS011;42176;43.240;27.880;2023-04-03T12:24:49;3.38;;;2.28;;
56269;SDS011;42176;43.240;27.880;2023-04-03T12:30:13;3.67;;;2.40;;
56269;SDS011;42176;43.240;27.880;2023-04-03T12:35:37;3.85;;;2.10;;
56269;SDS011;42176;43.240;27.880;2023-04-03T12:38:28;4.50;;;2.05;;
56269;SDS011;42176;43.240;27.880;2023-04-03T12:46:24;4.20;;;2.45;;
56269;SDS011;42176;43.240;27.880;2023-04-03T12:48:57;5.47;;;2.30;;
56269;SDS011;42176;43.240;27.880;2023-04-03T12:54:04;7.05;;;3.30;;
56269;SDS011;42176;43.240;27.880;2023-04-03T12:56:40;3.28;;;2.53;;
56269;SDS011;42176;43.240;27.880;2023-04-03T12:59:16;4.50;;;2.85;;
56269;SDS011;42176;43.240;27.880;2023-04-03T13:01:53;3.17;;;2.58;;
56269;SDS011;42176;43.240;27.880;2023-04-03T13:04:30;3.88;;;2.70;;
56269;SDS011;42176;43.240;27.880;2023-04-03T13:06:56;6.88;;;3.00;;
56269;SDS011;42176;43.240;27.880;2023-04-03T13:09:24;6.38;;;2.88;;
56269;SDS011;42176;43.240;27.880;2023-04-03T13:11:58;4.85;;;2.90;;
56269;SDS011;42176;43.240;27.880;2023-04-03T13:14:26;3.95;;;2.53;;
56269;SDS011;42176;43.240;27.880;2023-04-03T13:17:00;3.95;;;2.78;;
56269;SDS011;42176;43.240;27.880;2023-04-03T13:19:31;4.88;;;3.00;;
56269;SDS011;42176;43.240;27.880;2023-04-03T13:22:32;4.95;;;2.63;;
56269;SDS011;42176;43.240;27.880;2023-04-03T13:24:51;9.05;;;3.22;;
56269;SDS011;42176;43.240;27.880;2023-04-03T13:27:19;5.55;;;3.25;;
56269;SDS011;42176;43.240;27.880;2023-04-03T13:29:49;4.05;;;2.70;;
56269;SDS011;42176;43.240;27.880;2023-04-03T13:32:21;4.53;;;2.80;;
56269;SDS011;42176;43.240;27.880;2023-04-03T13:34:48;7.32;;;3.50;;
56269;SDS011;42176;43.240;27.880;2023-04-03T13:37:28;5.57;;;2.97;;
56269;SDS011;42176;43.240;27.880;2023-04-03T13:42:29;5.00;;;2.05;;
56269;SDS011;42176;43.240;27.880;2023-04-03T13:45:16;4.28;;;3.00;;
56269;SDS011;42176;43.240;27.880;2023-04-03T13:47:46;6.18;;;3.28;;
56269;SDS011;42176;43.240;27.880;2023-04-03T13:50:17;4.70;;;2.65;;
56269;SDS011;42176;43.240;27.880;2023-04-03T13:55:32;8.13;;;2.72;;
56269;SDS011;42176;43.240;27.880;2023-04-03T14:00:48;4.00;;;2.05;;
56269;SDS011;42176;43.240;27.880;2023-04-03T14:03:30;4.15;;;2.15;;
56269;SDS011;42176;43.240;27.880;2023-04-03T14:05:59;3.75;;;2.58;;
56269;SDS011;42176;43.240;27.880;2023-04-03T14:08:26;4.60;;;2.70;;
56269;SDS011;42176;43.240;27.880;2023-04-03T14:10:52;6.03;;;2.55;;
56269;SDS011;42176;43.240;27.880;2023-04-03T14:13:19;4.80;;;2.50;;
56269;SDS011;42176;43.240;27.880;2023-04-03T14:15:52;5.43;;;2.80;;
56269;SDS011;42176;43.240;27.880;2023-04-03T14:18:18;5.47;;;3.20;;
56269;SDS011;42176;43.240;27.880;2023-04-03T14:20:45;4.38;;;2.88;;
56269;SDS011;42176;43.240;27.880;2023-04-03T14:23:11;3.78;;;2.65;;
56269;SDS011;42176;43.240;27.880;2023-04-03T14:25:38;6.22;;;2.38;;
56269;SDS011;42176;43.240;27.880;2023-04-03T14:28:12;4.90;;;2.50;;
56269;SDS011;42176;43.240;27.880;2023-04-03T14:30:41;3.53;;;2.28;;
56269;SDS011;42176;43.240;27.880;2023-04-03T14:33:11;8.65;;;2.05;;
56269;SDS011;42176;43.240;27.880;2023-04-03T14:35:39;9.70;;;3.05;;
56269;SDS011;42176;43.240;27.880;2023-04-03T14:38:09;3.03;;;2.25;;
56269;SDS011;42176;43.240;27.880;2023-04-03T14:40:45;5.20;;;2.97;;
56269;SDS011;42176;43.240;27.880;2023-04-03T14:43:12;4.57;;;2.55;;
56269;SDS011;42176;43.240;27.880;2023-04-03T14:45:38;2.92;;;1.90;;
56269;SDS011;42176;43.240;27.880;2023-04-03T14:48:09;4.13;;;2.65;;
56269;SDS011;42176;43.240;27.880;2023-04-03T14:50:41;3.05;;;2.35;;
56269;SDS011;42176;43.240;27.880;2023-04-03T14:53:07;6.20;;;3.20;;
56269;SDS011;42176;43.240;27.880;2023-04-03T14:55:32;4.40;;;2.67;;
56269;SDS011;42176;43.240;27.880;2023-04-03T14:58:00;4.05;;;2.65;;
56269;SDS011;42176;43.240;27.880;2023-04-03T15:00:26;4.47;;;2.67;;
56269;SDS011;42176;43.240;27.880;2023-04-03T15:02:51;6.07;;;2.95;;
56269;SDS011;42176;43.240;27.880;2023-04-03T15:05:17;5.63;;;3.35;;
56269;SDS011;42176;43.240;27.880;2023-04-03T15:07:53;17.23;;;4.03;;
56269;SDS011;42176;43.240;27.880;2023-04-03T15:12:51;7.03;;;3.30;;
56269;SDS011;42176;43.240;27.880;2023-04-03T15:15:17;7.18;;;3.65;;
56269;SDS011;42176;43.240;27.880;2023-04-03T15:17:50;6.15;;;3.10;;
56269;SDS011;42176;43.240;27.880;2023-04-03T15:20:24;7.82;;;3.50;;
56269;SDS011;42176;43.240;27.880;2023-04-03T15:22:52;6.13;;;3.58;;
56269;SDS011;42176;43.240;27.880;2023-04-03T15:25:18;9.02;;;3.95;;
56269;SDS011;42176;43.240;27.880;2023-04-03T15:27:43;6.47;;;3.70;;
56269;SDS011;42176;43.240;27.880;2023-04-03T15:30:17;4.97;;;3.53;;
56269;SDS011;42176;43.240;27.880;2023-04-03T15:32:43;5.00;;;3.55;;
56269;SDS011;42176;43.240;27.880;2023-04-03T15:35:09;6.15;;;3.30;;
56269;SDS011;42176;43.240;27.880;2023-04-03T15:37:38;6.03;;;3.67;;
56269;SDS011;42176;43.240;27.880;2023-04-03T15:40:04;4.75;;;3.30;;
56269;SDS011;42176;43.240;27.880;2023-04-03T15:42:31;5.18;;;2.45;;
56269;SDS011;42176;43.240;27.880;2023-04-03T15:44:56;4.68;;;2.40;;
56269;SDS011;42176;43.240;27.880;2023-04-03T15:47:22;3.22;;;2.78;;
56269;SDS011;42176;43.240;27.880;2023-04-03T15:49:49;9.55;;;3.40;;
56269;SDS011;42176;43.240;27.880;2023-04-03T15:52:14;6.38;;;2.58;;
56269;SDS011;42176;43.240;27.880;2023-04-03T15:54:40;5.57;;;3.28;;
56269;SDS011;42176;43.240;27.880;2023-04-03T15:57:05;4.82;;;3.70;;
56269;SDS011;42176;43.240;27.880;2023-04-03T15:59:31;8.60;;;4.93;;
56269;SDS011;42176;43.240;27.880;2023-04-03T16:01:57;5.88;;;3.35;;
56269;SDS011;42176;43.240;27.880;2023-04-03T16:04:25;5.75;;;3.55;;
56269;SDS011;42176;43.240;27.880;2023-04-03T16:06:50;6.80;;;3.47;;
56269;SDS011;42176;43.240;27.880;2023-04-03T16:09:17;6.32;;;3.53;;
56269;SDS011;42176;43.240;27.880;2023-04-03T16:11:42;5.53;;;3.50;;
56269;SDS011;42176;43.240;27.880;2023-04-03T16:14:08;6.63;;;3.42;;
56269;SDS011;42176;43.240;27.880;2023-04-03T16:16:34;5.03;;;3.65;;
56269;SDS011;42176;43.240;27.880;2023-04-03T16:19:00;7.38;;;2.67;;